sensor_id;sensor_type;location;lat;lon;timestamp;P1;durP1;ratioP1;P2;durP2;ratioP2
22973;SDS011;11653;50.848;4.584;2023-08-17T00:01:24;4.83;;;3.77;;
22973;SDS011;11653;50.848;4.584;2023-08-17T00:03:49;10.67;;;4.23;;
22973;SDS011;11653;50.848;4.584;2023-08-17T00:06:15;8.13;;;4.37;;
22973;SDS011;11653;50.848;4.584;2023-08-17T00:08:41;5.00;;;4.50;;
22973;SDS011;11653;50.848;4.584;2023-08-17T00:11:07;6.27;;;4.67;;
22973;SDS011;11653;50.848;4.584;2023-08-17T00:13:33;10.13;;;4.70;;
22973;SDS011;11653;50.848;4.584;2023-08-17T00:16:00;4.43;;;3.90;;
22973;SDS011;11653;50.848;4.584;2023-08-17T00:18:25;8.87;;;4.43;;
22973;SDS011;11653;50.848;4.584;2023-08-17T00:20:51;4.87;;;3.63;;
22973;SDS011;11653;50.848;4.584;2023-08-17T00:23:17;7.87;;;3.60;;
22973;SDS011;11653;50.848;4.584;2023-08-17T00:25:43;4.10;;;3.70;;
22973;SDS011;11653;50.848;4.584;2023-08-17T00:28:09;5.20;;;3.90;;
22973;SDS011;11653;50.848;4.584;2023-08-17T00:30:34;7.20;;;3.67;;
22973;SDS011;11653;50.848;4.584;2023-08-17T00:33:03;5.00;;;3.57;;
22973;SDS011;11653;50.848;4.584;2023-08-17T00:35:29;4.93;;;3.37;;
22973;SDS011;11653;50.848;4.584;2023-08-17T00:37:54;6.13;;;3.70;;
22973;SDS011;11653;50.848;4.584;2023-08-17T00:40:20;4.57;;;3.27;;
22973;SDS011;11653;50.848;4.584;2023-08-17T00:42:46;5.57;;;3.03;;
22973;SDS011;11653;50.848;4.584;2023-08-17T00:45:11;5.90;;;3.60;;
22973;SDS011;11653;50.848;4.584;2023-08-17T00:47:37;4.47;;;3.57;;
22973;SDS011;11653;50.848;4.584;2023-08-17T00:50:03;6.43;;;3.97;;
22973;SDS011;11653;50.848;4.584;2023-08-17T00:52:30;4.70;;;3.40;;
22973;SDS011;11653;50.848;4.584;2023-08-17T00:54:57;6.10;;;3.03;;
22973;SDS011;11653;50.848;4.584;2023-08-17T00:57:25;7.70;;;3.50;;
22973;SDS011;11653;50.848;4.584;2023-08-17T00:59:51;8.13;;;3.63;;
22973;SDS011;11653;50.848;4.584;2023-08-17T01:02:17;4.87;;;3.50;;
22973;SDS011;11653;50.848;4.584;2023-08-17T01:04:43;3.93;;;3.10;;
22973;SDS011;11653;50.848;4.584;2023-08-17T01:07:09;5.37;;;3.47;;
22973;SDS011;11653;50.848;4.584;2023-08-17T01:09:35;5.90;;;2.90;;
22973;SDS011;11653;50.848;4.584;2023-08-17T01:12:17;5.90;;;3.37;;
22973;SDS011;11653;50.848;4.584;2023-08-17T01:20:48;7.10;;;3.10;;
22973;SDS011;11653;50.848;4.584;2023-08-17T01:23:15;4.80;;;2.80;;
22973;SDS011;11653;50.848;4.584;2023-08-17T01:25:40;6.37;;;2.67;;
22973;SDS011;11653;50.848;4.584;2023-08-17T01:28:06;5.03;;;3.47;;
22973;SDS011;11653;50.848;4.584;2023-08-17T01:30:33;7.07;;;2.67;;
22973;SDS011;11653;50.848;4.584;2023-08-17T01:33:30;3.37;;;3.00;;
22973;SDS011;11653;50.848;4.584;2023-08-17T01:38:51;4.80;;;3.20;;
22973;SDS011;11653;50.848;4.584;2023-08-17T01:41:18;4.50;;;2.83;;
22973;SDS011;11653;50.848;4.584;2023-08-17T01:43:45;5.63;;;3.43;;
22973;SDS011;11653;50.848;4.584;2023-08-17T01:46:16;5.60;;;3.07;;
22973;SDS011;11653;50.848;4.584;2023-08-17T01:48:42;7.27;;;3.97;;
22973;SDS011;11653;50.848;4.584;2023-08-17T01:51:09;3.27;;;2.97;;
22973;SDS011;11653;50.848;4.584;2023-08-17T01:53:36;8.13;;;3.80;;
22973;SDS011;11653;50.848;4.584;2023-08-17T01:56:02;5.97;;;3.60;;
22973;SDS011;11653;50.848;4.584;2023-08-17T01:58:27;6.23;;;3.37;;
22973;SDS011;11653;50.848;4.584;2023-08-17T02:00:53;4.73;;;3.70;;
22973;SDS011;11653;50.848;4.584;2023-08-17T02:03:19;6.57;;;3.77;;
22973;SDS011;11653;50.848;4.584;2023-08-17T02:05:45;6.53;;;4.10;;
22973;SDS011;11653;50.848;4.584;2023-08-17T02:08:11;7.47;;;4.07;;
22973;SDS011;11653;50.848;4.584;2023-08-17T02:10:36;5.83;;;4.37;;
22973;SDS011;11653;50.848;4.584;2023-08-17T02:13:02;6.03;;;4.00;;
22973;SDS011;11653;50.848;4.584;2023-08-17T02:15:28;9.20;;;3.90;;
22973;SDS011;11653;50.848;4.584;2023-08-17T02:17:53;6.67;;;4.53;;
22973;SDS011;11653;50.848;4.584;2023-08-17T02:20:19;5.27;;;4.03;;
22973;SDS011;11653;50.848;4.584;2023-08-17T02:22:44;10.47;;;4.83;;
22973;SDS011;11653;50.848;4.584;2023-08-17T02:25:10;7.53;;;3.93;;
22973;SDS011;11653;50.848;4.584;2023-08-17T02:27:36;6.83;;;4.37;;
22973;SDS011;11653;50.848;4.584;2023-08-17T02:30:02;6.77;;;4.53;;
22973;SDS011;11653;50.848;4.584;2023-08-17T02:32:28;7.27;;;4.17;;
22973;SDS011;11653;50.848;4.584;2023-08-17T02:34:54;6.57;;;4.57;;
22973;SDS011;11653;50.848;4.584;2023-08-17T02:37:20;5.87;;;4.07;;
22973;SDS011;11653;50.848;4.584;2023-08-17T02:39:45;6.43;;;4.60;;
22973;SDS011;11653;50.848;4.584;2023-08-17T02:42:11;8.10;;;4.63;;
22973;SDS011;11653;50.848;4.584;2023-08-17T02:44:37;16.83;;;5.27;;
22973;SDS011;11653;50.848;4.584;2023-08-17T02:47:02;7.83;;;4.43;;
22973;SDS011;11653;50.848;4.584;2023-08-17T02:49:28;11.13;;;4.23;;
22973;SDS011;11653;50.848;4.584;2023-08-17T02:51:54;8.23;;;4.43;;
22973;SDS011;11653;50.848;4.584;2023-08-17T02:54:19;4.73;;;3.97;;
22973;SDS011;11653;50.848;4.584;2023-08-17T02:56:45;8.87;;;4.50;;
22973;SDS011;11653;50.848;4.584;2023-08-17T02:59:11;9.13;;;4.10;;
22973;SDS011;11653;50.848;4.584;2023-08-17T03:01:36;5.77;;;4.13;;
22973;SDS011;11653;50.848;4.584;2023-08-17T03:04:02;6.87;;;4.43;;
22973;SDS011;11653;50.848;4.584;2023-08-17T03:06:28;6.50;;;4.30;;
22973;SDS011;11653;50.848;4.584;2023-08-17T03:08:54;8.83;;;4.47;;
22973;SDS011;11653;50.848;4.584;2023-08-17T03:11:20;7.10;;;4.67;;
22973;SDS011;11653;50.848;4.584;2023-08-17T03:13:46;7.97;;;4.60;;
22973;SDS011;11653;50.848;4.584;2023-08-17T03:16:13;8.23;;;4.13;;
22973;SDS011;11653;50.848;4.584;2023-08-17T03:18:40;5.83;;;4.63;;
22973;SDS011;11653;50.848;4.584;2023-08-17T03:21:06;8.73;;;4.20;;
22973;SDS011;11653;50.848;4.584;2023-08-17T03:23:32;10.67;;;4.93;;
22973;SDS011;11653;50.848;4.584;2023-08-17T03:25:57;7.17;;;3.90;;
22973;SDS011;11653;50.848;4.584;2023-08-17T03:28:23;7.20;;;4.13;;
22973;SDS011;11653;50.848;4.584;2023-08-17T03:30:50;6.60;;;4.50;;
22973;SDS011;11653;50.848;4.584;2023-08-17T03:33:20;6.83;;;4.87;;
22973;SDS011;11653;50.848;4.584;2023-08-17T03:35:45;9.17;;;4.57;;
22973;SDS011;11653;50.848;4.584;2023-08-17T03:38:11;6.60;;;4.20;;
22973;SDS011;11653;50.848;4.584;2023-08-17T03:40:37;4.87;;;3.93;;
22973;SDS011;11653;50.848;4.584;2023-08-17T03:43:03;8.23;;;4.57;;
22973;SDS011;11653;50.848;4.584;2023-08-17T03:45:29;6.37;;;4.73;;
22973;SDS011;11653;50.848;4.584;2023-08-17T03:47:55;5.60;;;4.27;;
22973;SDS011;11653;50.848;4.584;2023-08-17T03:50:21;7.30;;;4.43;;
22973;SDS011;11653;50.848;4.584;2023-08-17T03:52:47;10.20;;;4.43;;
22973;SDS011;11653;50.848;4.584;2023-08-17T03:55:12;12.10;;;4.70;;
22973;SDS011;11653;50.848;4.584;2023-08-17T03:57:38;8.33;;;4.57;;
22973;SDS011;11653;50.848;4.584;2023-08-17T04:00:04;5.17;;;4.10;;
22973;SDS011;11653;50.848;4.584;2023-08-17T04:02:31;7.60;;;4.50;;
22973;SDS011;11653;50.848;4.584;2023-08-17T04:04:56;9.43;;;4.80;;
22973;SDS011;11653;50.848;4.584;2023-08-17T04:07:22;8.20;;;4.73;;
22973;SDS011;11653;50.848;4.584;2023-08-17T04:09:48;10.20;;;4.60;;
22973;SDS011;11653;50.848;4.584;2023-08-17T04:12:14;6.90;;;4.33;;
22973;SDS011;11653;50.848;4.584;2023-08-17T04:14:40;6.90;;;4.17;;
22973;SDS011;11653;50.848;4.584;2023-08-17T04:17:05;10.97;;;4.67;;
22973;SDS011;11653;50.848;4.584;2023-08-17T04:19:31;9.83;;;4.10;;
22973;SDS011;11653;50.848;4.584;2023-08-17T04:21:57;6.53;;;4.30;;
22973;SDS011;11653;50.848;4.584;2023-08-17T04:24:23;12.60;;;4.20;;
22973;SDS011;11653;50.848;4.584;2023-08-17T04:26:49;6.17;;;4.30;;
22973;SDS011;11653;50.848;4.584;2023-08-17T04:29:15;9.43;;;4.10;;
22973;SDS011;11653;50.848;4.584;2023-08-17T04:31:40;5.30;;;3.90;;
22973;SDS011;11653;50.848;4.584;2023-08-17T04:34:06;8.00;;;4.20;;
22973;SDS011;11653;50.848;4.584;2023-08-17T04:36:32;8.37;;;3.90;;
22973;SDS011;11653;50.848;4.584;2023-08-17T04:38:58;9.80;;;4.07;;
22973;SDS011;11653;50.848;4.584;2023-08-17T04:41:24;8.43;;;4.10;;
22973;SDS011;11653;50.848;4.584;2023-08-17T04:43:49;6.10;;;4.07;;
22973;SDS011;11653;50.848;4.584;2023-08-17T04:46:15;10.60;;;4.07;;
22973;SDS011;11653;50.848;4.584;2023-08-17T04:48:41;7.57;;;4.10;;
22973;SDS011;11653;50.848;4.584;2023-08-17T04:51:06;9.33;;;3.90;;
22973;SDS011;11653;50.848;4.584;2023-08-17T04:53:32;8.43;;;4.10;;
22973;SDS011;11653;50.848;4.584;2023-08-17T04:56:02;7.80;;;3.90;;
22973;SDS011;11653;50.848;4.584;2023-08-17T04:58:27;8.97;;;4.50;;
22973;SDS011;11653;50.848;4.584;2023-08-17T05:00:53;5.97;;;3.90;;
22973;SDS011;11653;50.848;4.584;2023-08-17T05:03:19;5.90;;;3.73;;
22973;SDS011;11653;50.848;4.584;2023-08-17T05:05:44;6.97;;;3.50;;
22973;SDS011;11653;50.848;4.584;2023-08-17T05:08:10;8.00;;;3.50;;
22973;SDS011;11653;50.848;4.584;2023-08-17T05:10:36;5.10;;;3.27;;
22973;SDS011;11653;50.848;4.584;2023-08-17T05:13:01;10.53;;;4.13;;
22973;SDS011;11653;50.848;4.584;2023-08-17T05:15:27;10.27;;;3.77;;
22973;SDS011;11653;50.848;4.584;2023-08-17T05:17:53;7.60;;;3.93;;
22973;SDS011;11653;50.848;4.584;2023-08-17T05:20:18;11.10;;;3.97;;
22973;SDS011;11653;50.848;4.584;2023-08-17T05:22:45;8.63;;;3.60;;
22973;SDS011;11653;50.848;4.584;2023-08-17T05:25:11;7.87;;;3.87;;
22973;SDS011;11653;50.848;4.584;2023-08-17T05:27:37;5.67;;;3.33;;
22973;SDS011;11653;50.848;4.584;2023-08-17T05:30:03;7.23;;;3.80;;
22973;SDS011;11653;50.848;4.584;2023-08-17T05:32:29;8.40;;;3.87;;
22973;SDS011;11653;50.848;4.584;2023-08-17T05:34:55;6.77;;;3.60;;
22973;SDS011;11653;50.848;4.584;2023-08-17T05:37:21;6.93;;;3.83;;
22973;SDS011;11653;50.848;4.584;2023-08-17T05:39:47;7.97;;;3.57;;
22973;SDS011;11653;50.848;4.584;2023-08-17T05:42:13;6.93;;;4.00;;
22973;SDS011;11653;50.848;4.584;2023-08-17T05:44:38;6.70;;;3.90;;
22973;SDS011;11653;50.848;4.584;2023-08-17T05:47:04;8.67;;;4.20;;
22973;SDS011;11653;50.848;4.584;2023-08-17T05:49:29;7.50;;;3.77;;
22973;SDS011;11653;50.848;4.584;2023-08-17T05:51:55;5.80;;;4.00;;
22973;SDS011;11653;50.848;4.584;2023-08-17T05:54:21;8.77;;;3.63;;
22973;SDS011;11653;50.848;4.584;2023-08-17T05:56:47;6.73;;;4.07;;
22973;SDS011;11653;50.848;4.584;2023-08-17T05:59:13;6.97;;;4.00;;
22973;SDS011;11653;50.848;4.584;2023-08-17T06:01:39;8.20;;;3.63;;
22973;SDS011;11653;50.848;4.584;2023-08-17T06:04:05;6.40;;;3.60;;
22973;SDS011;11653;50.848;4.584;2023-08-17T06:06:31;9.13;;;4.03;;
22973;SDS011;11653;50.848;4.584;2023-08-17T06:08:57;6.63;;;3.93;;
22973;SDS011;11653;50.848;4.584;2023-08-17T06:11:22;7.90;;;4.13;;
22973;SDS011;11653;50.848;4.584;2023-08-17T06:13:49;6.70;;;4.07;;
22973;SDS011;11653;50.848;4.584;2023-08-17T06:16:14;9.57;;;4.20;;
22973;SDS011;11653;50.848;4.584;2023-08-17T06:18:40;6.50;;;3.90;;
22973;SDS011;11653;50.848;4.584;2023-08-17T06:21:07;9.13;;;4.43;;
22973;SDS011;11653;50.848;4.584;2023-08-17T06:23:33;9.67;;;4.03;;
22973;SDS011;11653;50.848;4.584;2023-08-17T06:25:59;7.97;;;4.30;;
22973;SDS011;11653;50.848;4.584;2023-08-17T06:28:25;7.63;;;4.10;;
22973;SDS011;11653;50.848;4.584;2023-08-17T06:30:52;7.33;;;4.00;;
22973;SDS011;11653;50.848;4.584;2023-08-17T06:33:19;9.70;;;4.90;;
22973;SDS011;11653;50.848;4.584;2023-08-17T06:35:45;12.07;;;4.43;;
22973;SDS011;11653;50.848;4.584;2023-08-17T06:38:10;8.53;;;4.27;;
22973;SDS011;11653;50.848;4.584;2023-08-17T06:40:37;9.47;;;5.03;;
22973;SDS011;11653;50.848;4.584;2023-08-17T06:43:03;12.27;;;4.80;;
22973;SDS011;11653;50.848;4.584;2023-08-17T06:45:31;7.93;;;4.60;;
22973;SDS011;11653;50.848;4.584;2023-08-17T06:47:57;9.27;;;4.70;;
22973;SDS011;11653;50.848;4.584;2023-08-17T06:50:23;10.63;;;4.93;;
22973;SDS011;11653;50.848;4.584;2023-08-17T06:52:49;10.67;;;4.93;;
22973;SDS011;11653;50.848;4.584;2023-08-17T06:55:14;11.43;;;5.67;;
22973;SDS011;11653;50.848;4.584;2023-08-17T06:57:41;11.10;;;5.13;;
22973;SDS011;11653;50.848;4.584;2023-08-17T07:00:07;12.60;;;6.80;;
22973;SDS011;11653;50.848;4.584;2023-08-17T07:02:34;10.87;;;5.40;;
22973;SDS011;11653;50.848;4.584;2023-08-17T07:05:00;8.37;;;4.80;;
22973;SDS011;11653;50.848;4.584;2023-08-17T07:07:26;13.23;;;5.33;;
22973;SDS011;11653;50.848;4.584;2023-08-17T07:09:52;10.63;;;5.93;;
22973;SDS011;11653;50.848;4.584;2023-08-17T07:12:17;11.60;;;5.40;;
22973;SDS011;11653;50.848;4.584;2023-08-17T07:14:44;10.43;;;6.30;;
22973;SDS011;11653;50.848;4.584;2023-08-17T07:17:10;11.30;;;6.13;;
22973;SDS011;11653;50.848;4.584;2023-08-17T07:19:35;10.97;;;6.77;;
22973;SDS011;11653;50.848;4.584;2023-08-17T07:22:01;9.70;;;6.53;;
22973;SDS011;11653;50.848;4.584;2023-08-17T07:24:27;9.57;;;6.30;;
22973;SDS011;11653;50.848;4.584;2023-08-17T07:26:52;13.87;;;6.63;;
22973;SDS011;11653;50.848;4.584;2023-08-17T07:29:18;13.00;;;6.93;;
22973;SDS011;11653;50.848;4.584;2023-08-17T07:31:44;11.83;;;7.27;;
22973;SDS011;11653;50.848;4.584;2023-08-17T07:34:09;14.43;;;7.27;;
22973;SDS011;11653;50.848;4.584;2023-08-17T07:36:35;16.97;;;7.50;;
22973;SDS011;11653;50.848;4.584;2023-08-17T07:39:07;14.57;;;7.30;;
22973;SDS011;11653;50.848;4.584;2023-08-17T07:41:32;17.57;;;6.70;;
22973;SDS011;11653;50.848;4.584;2023-08-17T07:43:58;9.63;;;6.00;;
22973;SDS011;11653;50.848;4.584;2023-08-17T07:46:23;10.37;;;6.37;;
22973;SDS011;11653;50.848;4.584;2023-08-17T07:48:49;9.83;;;5.67;;
22973;SDS011;11653;50.848;4.584;2023-08-17T07:51:15;9.53;;;5.37;;
22973;SDS011;11653;50.848;4.584;2023-08-17T07:53:41;9.33;;;5.70;;
22973;SDS011;11653;50.848;4.584;2023-08-17T07:56:07;9.63;;;5.57;;
22973;SDS011;11653;50.848;4.584;2023-08-17T07:58:32;12.80;;;6.17;;
22973;SDS011;11653;50.848;4.584;2023-08-17T08:00:58;8.53;;;5.63;;
22973;SDS011;11653;50.848;4.584;2023-08-17T08:03:24;7.47;;;4.97;;
22973;SDS011;11653;50.848;4.584;2023-08-17T08:05:50;10.87;;;5.67;;
22973;SDS011;11653;50.848;4.584;2023-08-17T08:08:15;15.27;;;5.97;;
22973;SDS011;11653;50.848;4.584;2023-08-17T08:10:42;11.47;;;5.90;;
22973;SDS011;11653;50.848;4.584;2023-08-17T08:13:09;9.07;;;5.67;;
22973;SDS011;11653;50.848;4.584;2023-08-17T08:15:34;12.93;;;6.03;;
22973;SDS011;11653;50.848;4.584;2023-08-17T08:18:00;8.67;;;5.73;;
22973;SDS011;11653;50.848;4.584;2023-08-17T08:20:26;13.97;;;5.63;;
22973;SDS011;11653;50.848;4.584;2023-08-17T08:22:51;11.17;;;5.80;;
22973;SDS011;11653;50.848;4.584;2023-08-17T08:25:17;11.93;;;6.77;;
22973;SDS011;11653;50.848;4.584;2023-08-17T08:27:42;17.07;;;7.13;;
22973;SDS011;11653;50.848;4.584;2023-08-17T08:30:08;13.60;;;6.60;;
22973;SDS011;11653;50.848;4.584;2023-08-17T08:32:34;17.47;;;6.93;;
22973;SDS011;11653;50.848;4.584;2023-08-17T08:35:00;14.37;;;6.67;;
22973;SDS011;11653;50.848;4.584;2023-08-17T08:37:25;21.17;;;7.00;;
22973;SDS011;11653;50.848;4.584;2023-08-17T08:39:51;16.40;;;6.40;;
22973;SDS011;11653;50.848;4.584;2023-08-17T08:42:18;13.80;;;7.43;;
22973;SDS011;11653;50.848;4.584;2023-08-17T08:44:45;22.33;;;8.97;;
22973;SDS011;11653;50.848;4.584;2023-08-17T08:47:11;15.63;;;7.97;;
22973;SDS011;11653;50.848;4.584;2023-08-17T08:49:42;14.83;;;6.20;;
22973;SDS011;11653;50.848;4.584;2023-08-17T08:52:19;14.20;;;6.93;;
22973;SDS011;11653;50.848;4.584;2023-08-17T08:54:49;10.90;;;5.90;;
22973;SDS011;11653;50.848;4.584;2023-08-17T08:57:17;12.60;;;6.77;;
22973;SDS011;11653;50.848;4.584;2023-08-17T08:59:44;13.60;;;7.87;;
22973;SDS011;11653;50.848;4.584;2023-08-17T09:02:14;22.27;;;8.17;;
22973;SDS011;11653;50.848;4.584;2023-08-17T09:04:44;16.20;;;8.47;;
22973;SDS011;11653;50.848;4.584;2023-08-17T09:07:14;18.17;;;8.80;;
22973;SDS011;11653;50.848;4.584;2023-08-17T09:09:42;15.73;;;7.80;;
22973;SDS011;11653;50.848;4.584;2023-08-17T09:12:09;11.23;;;7.00;;
22973;SDS011;11653;50.848;4.584;2023-08-17T09:14:35;13.50;;;6.80;;
22973;SDS011;11653;50.848;4.584;2023-08-17T09:17:02;14.50;;;6.90;;
22973;SDS011;11653;50.848;4.584;2023-08-17T09:19:29;11.60;;;6.50;;
22973;SDS011;11653;50.848;4.584;2023-08-17T09:21:58;14.07;;;7.77;;
22973;SDS011;11653;50.848;4.584;2023-08-17T09:24:24;14.20;;;8.63;;
22973;SDS011;11653;50.848;4.584;2023-08-17T09:26:58;12.27;;;7.53;;
22973;SDS011;11653;50.848;4.584;2023-08-17T09:29:25;15.13;;;8.30;;
22973;SDS011;11653;50.848;4.584;2023-08-17T09:31:51;12.67;;;6.80;;
22973;SDS011;11653;50.848;4.584;2023-08-17T09:34:16;16.83;;;8.27;;
22973;SDS011;11653;50.848;4.584;2023-08-17T09:36:47;13.20;;;9.23;;
22973;SDS011;11653;50.848;4.584;2023-08-17T09:39:14;15.53;;;10.67;;
22973;SDS011;11653;50.848;4.584;2023-08-17T09:41:41;17.23;;;10.43;;
22973;SDS011;11653;50.848;4.584;2023-08-17T09:44:06;15.23;;;9.47;;
22973;SDS011;11653;50.848;4.584;2023-08-17T09:46:32;16.37;;;9.53;;
22973;SDS011;11653;50.848;4.584;2023-08-17T09:48:59;14.97;;;8.77;;
22973;SDS011;11653;50.848;4.584;2023-08-17T09:51:29;12.53;;;8.17;;
22973;SDS011;11653;50.848;4.584;2023-08-17T09:53:55;15.03;;;8.93;;
22973;SDS011;11653;50.848;4.584;2023-08-17T09:56:21;15.83;;;8.57;;
22973;SDS011;11653;50.848;4.584;2023-08-17T09:58:49;13.07;;;8.00;;
22973;SDS011;11653;50.848;4.584;2023-08-17T10:01:15;15.20;;;8.53;;
22973;SDS011;11653;50.848;4.584;2023-08-17T10:03:42;17.63;;;9.63;;
22973;SDS011;11653;50.848;4.584;2023-08-17T10:06:12;14.30;;;9.60;;
22973;SDS011;11653;50.848;4.584;2023-08-17T10:08:48;14.60;;;10.27;;
22973;SDS011;11653;50.848;4.584;2023-08-17T10:11:19;15.97;;;10.63;;
22973;SDS011;11653;50.848;4.584;2023-08-17T10:14:21;14.17;;;9.83;;
22973;SDS011;11653;50.848;4.584;2023-08-17T10:19:18;14.13;;;9.90;;
22973;SDS011;11653;50.848;4.584;2023-08-17T10:21:54;17.00;;;10.73;;
22973;SDS011;11653;50.848;4.584;2023-08-17T10:24:37;15.87;;;11.47;;
22973;SDS011;11653;50.848;4.584;2023-08-17T10:27:04;13.63;;;10.17;;
22973;SDS011;11653;50.848;4.584;2023-08-17T10:29:31;15.07;;;9.80;;
22973;SDS011;11653;50.848;4.584;2023-08-17T10:31:58;20.67;;;10.83;;
22973;SDS011;11653;50.848;4.584;2023-08-17T10:34:26;17.27;;;10.53;;
22973;SDS011;11653;50.848;4.584;2023-08-17T10:36:53;14.03;;;10.87;;
22973;SDS011;11653;50.848;4.584;2023-08-17T10:39:23;18.63;;;11.17;;
22973;SDS011;11653;50.848;4.584;2023-08-17T10:41:52;14.33;;;10.80;;
22973;SDS011;11653;50.848;4.584;2023-08-17T10:47:21;16.30;;;10.33;;
22973;SDS011;11653;50.848;4.584;2023-08-17T10:49:57;15.67;;;10.83;;
22973;SDS011;11653;50.848;4.584;2023-08-17T10:52:30;13.07;;;9.53;;
22973;SDS011;11653;50.848;4.584;2023-08-17T10:55:04;14.30;;;9.93;;
22973;SDS011;11653;50.848;4.584;2023-08-17T10:57:42;11.73;;;9.10;;
22973;SDS011;11653;50.848;4.584;2023-08-17T11:00:16;13.33;;;9.43;;
22973;SDS011;11653;50.848;4.584;2023-08-17T11:02:58;14.80;;;9.00;;
22973;SDS011;11653;50.848;4.584;2023-08-17T11:05:38;12.70;;;9.50;;
22973;SDS011;11653;50.848;4.584;2023-08-17T11:08:19;14.13;;;9.63;;
22973;SDS011;11653;50.848;4.584;2023-08-17T11:11:05;13.90;;;10.03;;
22973;SDS011;11653;50.848;4.584;2023-08-17T11:13:44;11.63;;;9.40;;
22973;SDS011;11653;50.848;4.584;2023-08-17T11:16:11;12.37;;;9.40;;
22973;SDS011;11653;50.848;4.584;2023-08-17T11:18:38;12.10;;;9.13;;
22973;SDS011;11653;50.848;4.584;2023-08-17T11:21:06;14.73;;;9.60;;
22973;SDS011;11653;50.848;4.584;2023-08-17T11:23:33;15.13;;;10.23;;
22973;SDS011;11653;50.848;4.584;2023-08-17T11:26:00;12.40;;;9.53;;
22973;SDS011;11653;50.848;4.584;2023-08-17T11:28:26;12.97;;;10.53;;
22973;SDS011;11653;50.848;4.584;2023-08-17T11:30:58;16.40;;;11.90;;
22973;SDS011;11653;50.848;4.584;2023-08-17T11:33:25;12.10;;;10.43;;
22973;SDS011;11653;50.848;4.584;2023-08-17T11:35:53;17.67;;;12.17;;
22973;SDS011;11653;50.848;4.584;2023-08-17T11:38:22;17.90;;;10.73;;
22973;SDS011;11653;50.848;4.584;2023-08-17T11:40:51;14.80;;;11.40;;
22973;SDS011;11653;50.848;4.584;2023-08-17T11:43:18;19.10;;;11.97;;
22973;SDS011;11653;50.848;4.584;2023-08-17T11:45:45;18.80;;;12.30;;
22973;SDS011;11653;50.848;4.584;2023-08-17T11:48:11;15.10;;;12.07;;
22973;SDS011;11653;50.848;4.584;2023-08-17T11:50:37;16.70;;;11.77;;
22973;SDS011;11653;50.848;4.584;2023-08-17T11:53:04;14.67;;;12.33;;
22973;SDS011;11653;50.848;4.584;2023-08-17T11:55:30;22.63;;;13.10;;
22973;SDS011;11653;50.848;4.584;2023-08-17T11:57:56;17.47;;;12.77;;
22973;SDS011;11653;50.848;4.584;2023-08-17T12:00:22;18.47;;;13.17;;
22973;SDS011;11653;50.848;4.584;2023-08-17T12:02:48;16.67;;;13.73;;
22973;SDS011;11653;50.848;4.584;2023-08-17T12:05:18;15.90;;;12.53;;
22973;SDS011;11653;50.848;4.584;2023-08-17T12:07:59;18.50;;;12.33;;
22973;SDS011;11653;50.848;4.584;2023-08-17T12:10:29;16.20;;;13.13;;
22973;SDS011;11653;50.848;4.584;2023-08-17T12:12:59;16.60;;;12.60;;
22973;SDS011;11653;50.848;4.584;2023-08-17T12:15:35;18.33;;;13.30;;
22973;SDS011;11653;50.848;4.584;2023-08-17T12:18:04;15.70;;;12.27;;
22973;SDS011;11653;50.848;4.584;2023-08-17T12:20:31;16.70;;;12.83;;
22973;SDS011;11653;50.848;4.584;2023-08-17T12:23:01;17.07;;;13.27;;
22973;SDS011;11653;50.848;4.584;2023-08-17T12:25:27;18.13;;;13.20;;
22973;SDS011;11653;50.848;4.584;2023-08-17T12:27:53;19.13;;;13.13;;
22973;SDS011;11653;50.848;4.584;2023-08-17T12:30:26;19.37;;;14.20;;
22973;SDS011;11653;50.848;4.584;2023-08-17T12:32:57;21.13;;;14.50;;
22973;SDS011;11653;50.848;4.584;2023-08-17T12:35:23;22.10;;;14.60;;
22973;SDS011;11653;50.848;4.584;2023-08-17T12:37:50;19.30;;;14.73;;
22973;SDS011;11653;50.848;4.584;2023-08-17T12:40:16;18.47;;;13.33;;
22973;SDS011;11653;50.848;4.584;2023-08-17T12:42:42;16.53;;;13.87;;
22973;SDS011;11653;50.848;4.584;2023-08-17T12:45:07;20.07;;;14.40;;
22973;SDS011;11653;50.848;4.584;2023-08-17T12:47:34;20.67;;;14.17;;
22973;SDS011;11653;50.848;4.584;2023-08-17T12:49:59;20.80;;;14.73;;
22973;SDS011;11653;50.848;4.584;2023-08-17T12:52:25;24.33;;;15.47;;
22973;SDS011;11653;50.848;4.584;2023-08-17T12:54:53;18.97;;;14.83;;
22973;SDS011;11653;50.848;4.584;2023-08-17T12:57:19;24.93;;;15.13;;
22973;SDS011;11653;50.848;4.584;2023-08-17T12:59:45;20.33;;;16.10;;
22973;SDS011;11653;50.848;4.584;2023-08-17T13:02:10;20.10;;;16.43;;
22973;SDS011;11653;50.848;4.584;2023-08-17T13:04:36;22.07;;;15.93;;
22973;SDS011;11653;50.848;4.584;2023-08-17T13:07:02;18.80;;;15.10;;
22973;SDS011;11653;50.848;4.584;2023-08-17T13:09:28;22.10;;;15.07;;
22973;SDS011;11653;50.848;4.584;2023-08-17T13:11:53;23.60;;;15.63;;
22973;SDS011;11653;50.848;4.584;2023-08-17T13:14:19;22.97;;;14.70;;
22973;SDS011;11653;50.848;4.584;2023-08-17T13:16:45;21.07;;;15.27;;
22973;SDS011;11653;50.848;4.584;2023-08-17T13:19:10;19.80;;;14.70;;
22973;SDS011;11653;50.848;4.584;2023-08-17T13:21:36;21.00;;;15.37;;
22973;SDS011;11653;50.848;4.584;2023-08-17T13:24:02;24.33;;;16.17;;
22973;SDS011;11653;50.848;4.584;2023-08-17T13:26:28;24.43;;;16.20;;
22973;SDS011;11653;50.848;4.584;2023-08-17T13:28:55;21.17;;;16.90;;
22973;SDS011;11653;50.848;4.584;2023-08-17T13:31:21;26.77;;;17.60;;
22973;SDS011;11653;50.848;4.584;2023-08-17T13:33:46;21.43;;;15.70;;
22973;SDS011;11653;50.848;4.584;2023-08-17T13:36:12;22.00;;;16.53;;
22973;SDS011;11653;50.848;4.584;2023-08-17T13:38:38;21.80;;;16.43;;
22973;SDS011;11653;50.848;4.584;2023-08-17T13:41:04;24.13;;;16.73;;
22973;SDS011;11653;50.848;4.584;2023-08-17T13:43:30;24.90;;;17.13;;
22973;SDS011;11653;50.848;4.584;2023-08-17T13:45:56;21.37;;;17.00;;
22973;SDS011;11653;50.848;4.584;2023-08-17T13:48:21;25.10;;;17.27;;
22973;SDS011;11653;50.848;4.584;2023-08-17T13:50:47;21.67;;;15.27;;
22973;SDS011;11653;50.848;4.584;2023-08-17T13:53:13;22.80;;;16.73;;
22973;SDS011;11653;50.848;4.584;2023-08-17T13:55:39;25.77;;;16.30;;
22973;SDS011;11653;50.848;4.584;2023-08-17T13:58:05;24.87;;;16.80;;
22973;SDS011;11653;50.848;4.584;2023-08-17T14:00:30;21.57;;;17.37;;
22973;SDS011;11653;50.848;4.584;2023-08-17T14:02:56;23.13;;;17.83;;
22973;SDS011;11653;50.848;4.584;2023-08-17T14:05:22;20.50;;;16.67;;
22973;SDS011;11653;50.848;4.584;2023-08-17T14:07:48;23.20;;;17.37;;
22973;SDS011;11653;50.848;4.584;2023-08-17T14:10:14;24.83;;;17.13;;
22973;SDS011;11653;50.848;4.584;2023-08-17T14:12:39;20.50;;;15.90;;
22973;SDS011;11653;50.848;4.584;2023-08-17T14:15:05;21.03;;;16.30;;
22973;SDS011;11653;50.848;4.584;2023-08-17T14:17:31;22.90;;;16.07;;
22973;SDS011;11653;50.848;4.584;2023-08-17T14:19:57;22.70;;;16.37;;
22973;SDS011;11653;50.848;4.584;2023-08-17T14:22:23;21.47;;;15.20;;
22973;SDS011;11653;50.848;4.584;2023-08-17T14:24:49;21.73;;;16.87;;
22973;SDS011;11653;50.848;4.584;2023-08-17T14:27:15;20.03;;;15.80;;
22973;SDS011;11653;50.848;4.584;2023-08-17T14:29:40;20.57;;;15.33;;
22973;SDS011;11653;50.848;4.584;2023-08-17T14:32:06;20.53;;;14.43;;
22973;SDS011;11653;50.848;4.584;2023-08-17T14:34:32;24.83;;;15.43;;
22973;SDS011;11653;50.848;4.584;2023-08-17T14:36:57;22.47;;;14.70;;
22973;SDS011;11653;50.848;4.584;2023-08-17T14:39:23;21.00;;;14.87;;
22973;SDS011;11653;50.848;4.584;2023-08-17T14:41:49;20.70;;;14.53;;
22973;SDS011;11653;50.848;4.584;2023-08-17T14:44:14;21.77;;;14.90;;
22973;SDS011;11653;50.848;4.584;2023-08-17T14:46:42;19.03;;;13.80;;
22973;SDS011;11653;50.848;4.584;2023-08-17T14:49:08;17.50;;;12.80;;